createdAt,value
2022-11-28T00:01:32.438Z,99640.25
2022-11-28T00:03:59.361Z,99637.91
2022-11-28T00:06:25.977Z,99638.78
2022-11-28T00:08:52.483Z,99631.81
2022-11-28T00:11:19.068Z,99634.13
2022-11-28T00:13:45.453Z,99631.94
2022-11-28T00:16:12.239Z,99628.28
2022-11-28T00:18:38.581Z,99621.50
2022-11-28T00:21:07.280Z,99623.03
2022-11-28T00:23:33.699Z,99617.13
2022-11-28T00:26:00.090Z,99618.31
2022-11-28T00:28:26.480Z,99614.63
2022-11-28T00:30:52.889Z,99610.09
2022-11-28T00:33:19.254Z,99614.47
2022-11-28T00:35:45.595Z,99609.03
2022-11-28T00:38:12.026Z,99607.94
2022-11-28T00:40:38.453Z,99615.16
2022-11-28T00:43:04.899Z,99597.97
2022-11-28T00:45:31.339Z,99599.69
2022-11-28T00:47:57.710Z,99596.09
2022-11-28T00:50:24.087Z,99586.88
2022-11-28T00:52:50.462Z,99590.59
2022-11-28T00:55:16.977Z,99582.19
2022-11-28T00:57:43.378Z,99582.13
2022-11-28T01:00:09.784Z,99578.78
2022-11-28T01:02:36.274Z,99572.56
2022-11-28T01:05:02.659Z,99570.38
2022-11-28T01:07:29.211Z,99570.72
2022-11-28T01:09:55.756Z,99561.81
2022-11-28T01:12:22.344Z,99555.25
2022-11-28T01:14:48.902Z,99557.69
2022-11-28T01:17:15.312Z,99546.91
2022-11-28T01:19:41.745Z,99543.00
2022-11-28T01:22:08.231Z,99538.59
2022-11-28T01:24:34.600Z,99534.72
2022-11-28T01:27:01.031Z,99532.88
2022-11-28T01:29:27.880Z,99535.38
2022-11-28T01:31:54.295Z,99523.38
2022-11-28T01:34:20.954Z,99517.88
2022-11-28T01:36:47.346Z,99511.13
2022-11-28T01:39:13.765Z,99510.00
2022-11-28T01:41:40.330Z,99510.28
2022-11-28T01:44:08.272Z,99500.38
2022-11-28T01:46:34.916Z,99494.47
2022-11-28T01:49:01.360Z,99484.41
2022-11-28T01:51:28.619Z,99484.63
2022-11-28T01:53:55.089Z,99470.59
2022-11-28T01:56:21.968Z,99476.31
2022-11-28T01:58:48.424Z,99477.63
2022-11-28T02:01:14.977Z,99461.81
2022-11-28T02:03:41.464Z,99467.16
2022-11-28T02:06:08.074Z,99460.56
2022-11-28T02:08:34.871Z,99438.75
2022-11-28T02:11:01.267Z,99437.00
2022-11-28T02:13:27.863Z,99440.94
2022-11-28T02:15:54.808Z,99442.66
2022-11-28T02:18:23.357Z,99433.63
2022-11-28T02:20:50.111Z,99435.94
2022-11-28T02:23:16.898Z,99438.16
2022-11-28T02:25:43.661Z,99432.53
2022-11-28T02:28:10.189Z,99430.84
2022-11-28T02:30:37.058Z,99419.91
2022-11-28T02:33:03.395Z,99421.09
2022-11-28T02:35:29.858Z,99420.59
2022-11-28T02:37:56.324Z,99416.19
2022-11-28T02:40:22.750Z,99413.69
2022-11-28T02:42:49.419Z,99416.38
2022-11-28T02:45:15.885Z,99408.69
2022-11-28T02:47:42.613Z,99406.50
2022-11-28T02:50:09.038Z,99398.53
2022-11-28T02:52:35.413Z,99391.88
2022-11-28T02:55:01.883Z,99386.19
2022-11-28T02:57:28.347Z,99392.50
2022-11-28T02:59:54.887Z,99387.88
2022-11-28T03:02:21.382Z,99389.25
2022-11-28T03:04:48.746Z,99384.97
2022-11-28T03:07:15.164Z,99390.38
2022-11-28T03:09:41.572Z,99373.84
2022-11-28T03:12:07.956Z,99380.34
2022-11-28T03:14:34.398Z,99374.09
2022-11-28T03:17:00.795Z,99382.19
2022-11-28T03:19:27.554Z,99378.97
2022-11-28T03:21:53.918Z,99376.59
2022-11-28T03:24:20.322Z,99375.66
2022-11-28T03:26:46.735Z,99370.13
2022-11-28T03:29:13.171Z,99365.72
2022-11-28T03:31:39.694Z,99370.84
2022-11-28T03:34:06.256Z,99372.00
2022-11-28T03:36:32.711Z,99369.84
2022-11-28T03:38:59.382Z,99366.91
2022-11-28T03:41:26.050Z,99366.53
2022-11-28T03:43:52.394Z,99363.28
2022-11-28T03:46:18.867Z,99359.16
2022-11-28T03:48:45.361Z,99366.63
2022-11-28T03:51:11.788Z,99368.41
2022-11-28T03:53:38.197Z,99365.78
2022-11-28T03:56:04.761Z,99360.63
2022-11-28T03:58:31.224Z,99354.53
2022-11-28T04:00:57.894Z,99362.28
2022-11-28T04:03:24.416Z,99352.69
2022-11-28T04:05:50.903Z,99349.03
2022-11-28T04:08:17.281Z,99341.56
2022-11-28T04:10:43.730Z,99346.66
2022-11-28T04:13:10.153Z,99345.66
2022-11-28T04:15:36.659Z,99346.78
2022-11-28T04:18:03.333Z,99338.88
2022-11-28T04:20:29.716Z,99349.19
2022-11-28T04:22:56.103Z,99341.84
2022-11-28T04:25:22.505Z,99329.50
2022-11-28T04:27:49.024Z,99334.78
2022-11-28T04:30:15.495Z,99327.63
2022-11-28T04:32:42.317Z,99327.63
2022-11-28T04:35:08.692Z,99327.16
2022-11-28T04:37:35.324Z,99320.06
2022-11-28T04:40:01.830Z,99321.09
2022-11-28T04:42:28.186Z,99324.56
2022-11-28T04:44:54.841Z,99312.81
2022-11-28T04:47:21.321Z,99310.66
2022-11-28T04:49:47.750Z,99314.00
2022-11-28T04:52:15.072Z,99308.72
2022-11-28T04:54:41.816Z,99305.28
2022-11-28T04:57:08.309Z,99301.63
2022-11-28T04:59:34.732Z,99296.66
2022-11-28T05:02:01.443Z,99299.63
2022-11-28T05:04:28.113Z,99303.91
2022-11-28T05:06:54.469Z,99288.69
2022-11-28T05:09:21.018Z,99283.53
2022-11-28T05:11:47.356Z,99283.41
2022-11-28T05:14:14.005Z,99295.50
2022-11-28T05:16:40.669Z,99292.88
2022-11-28T05:19:07.078Z,99293.66
2022-11-28T05:21:33.425Z,99301.53
2022-11-28T05:23:59.804Z,99287.91
2022-11-28T05:26:26.185Z,99283.53
2022-11-28T05:28:52.766Z,99281.50
2022-11-28T05:31:19.265Z,99270.03
2022-11-28T05:33:45.671Z,99270.47
2022-11-28T05:36:13.477Z,99275.69
2022-11-28T05:38:40.315Z,99280.47
2022-11-28T05:41:06.685Z,99283.78
2022-11-28T05:43:33.079Z,99282.63
2022-11-28T05:45:59.512Z,99292.56
2022-11-28T05:48:25.950Z,99298.19
2022-11-28T05:50:52.719Z,99296.75
2022-11-28T05:53:19.113Z,99294.91
2022-11-28T05:55:45.889Z,99291.16
2022-11-28T05:58:12.469Z,99284.06
2022-11-28T06:00:38.893Z,99282.72
2022-11-28T06:03:05.238Z,99291.03
2022-11-28T06:05:47.222Z,99272.41
2022-11-28T06:08:13.835Z,99278.03
2022-11-28T06:10:40.215Z,99275.19
2022-11-28T06:13:06.747Z,99268.88
2022-11-28T06:15:37.469Z,99271.81
2022-11-28T06:18:05.070Z,99275.81
2022-11-28T06:20:31.640Z,99270.59
2022-11-28T06:22:58.029Z,99274.31
2022-11-28T06:25:24.372Z,99277.81
2022-11-28T06:27:52.082Z,99272.75
2022-11-28T06:30:19.215Z,99275.75
2022-11-28T06:32:45.593Z,99273.09
2022-11-28T06:35:12.947Z,99272.47
2022-11-28T06:37:39.372Z,99276.22
2022-11-28T06:40:05.936Z,99280.81
2022-11-28T06:42:32.634Z,99267.50
2022-11-28T06:44:59.027Z,99275.81
2022-11-28T06:47:25.590Z,99271.53
2022-11-28T06:49:52.370Z,99269.56
2022-11-28T06:52:18.780Z,99267.56
2022-11-28T06:54:45.348Z,99267.66
2022-11-28T06:57:11.922Z,99270.00
2022-11-28T06:59:38.377Z,99260.25
2022-11-28T07:02:07.839Z,99267.56
2022-11-28T07:04:34.486Z,99269.09
2022-11-28T07:07:01.005Z,99253.81
2022-11-28T07:09:27.452Z,99257.31
2022-11-28T07:11:53.789Z,99249.13
2022-11-28T07:14:20.318Z,99257.56
2022-11-28T07:16:46.734Z,99255.78
2022-11-28T07:19:13.217Z,99256.84
2022-11-28T07:21:39.621Z,99256.75
2022-11-28T07:24:06.005Z,99249.06
2022-11-28T07:26:32.473Z,99249.28
2022-11-28T07:28:58.847Z,99255.22
2022-11-28T07:31:25.351Z,99240.84
2022-11-28T07:33:51.824Z,99237.81
2022-11-28T07:36:18.567Z,99234.03
2022-11-28T07:38:44.956Z,99238.97
2022-11-28T07:41:11.335Z,99237.69
2022-11-28T07:43:37.727Z,99237.97
2022-11-28T07:46:04.114Z,99239.47
2022-11-28T07:48:30.487Z,99243.59
2022-11-28T07:50:56.912Z,99224.84
2022-11-28T07:53:23.497Z,99223.78
2022-11-28T07:55:51.956Z,99218.09
2022-11-28T07:58:18.432Z,99223.72
2022-11-28T08:00:44.817Z,99220.25
2022-11-28T08:03:11.324Z,99218.75
2022-11-28T08:05:37.820Z,99221.09
2022-11-28T08:08:04.231Z,99223.34
2022-11-28T08:10:30.861Z,99222.38
2022-11-28T08:12:57.331Z,99217.94
2022-11-28T08:15:23.751Z,99217.19
2022-11-28T08:17:50.357Z,99213.72
2022-11-28T08:20:16.739Z,99218.44
2022-11-28T08:22:43.168Z,99219.69
2022-11-28T08:25:09.750Z,99220.66
2022-11-28T08:27:36.340Z,99215.75
2022-11-28T08:30:02.693Z,99214.56
2022-11-28T08:32:29.061Z,99215.63
2022-11-28T08:34:55.559Z,99211.09
2022-11-28T08:37:21.943Z,99215.03
2022-11-28T08:39:48.664Z,99217.72
2022-11-28T08:42:15.007Z,99215.31
2022-11-28T08:44:41.340Z,99215.63
2022-11-28T08:47:07.742Z,99219.41
2022-11-28T08:49:34.253Z,99216.72
2022-11-28T08:52:01.081Z,99215.38
2022-11-28T08:54:27.692Z,99211.53
2022-11-28T08:56:54.201Z,99207.09
2022-11-28T08:59:20.539Z,99207.06
2022-11-28T09:01:48.003Z,99206.88
2022-11-28T09:04:14.620Z,99206.50
2022-11-28T09:06:41.326Z,99196.91
2022-11-28T09:09:07.716Z,99207.63
2022-11-28T09:11:35.213Z,99202.28
2022-11-28T09:14:02.023Z,99197.34
2022-11-28T09:16:28.455Z,99203.47
2022-11-28T09:18:54.858Z,99193.66
2022-11-28T09:21:22.815Z,99201.69
2022-11-28T09:23:49.197Z,99198.13
2022-11-28T09:26:15.785Z,99196.56
2022-11-28T09:28:42.113Z,99197.38
2022-11-28T09:31:08.505Z,99186.13
2022-11-28T09:33:35.111Z,99175.06
2022-11-28T09:36:01.535Z,99182.31
2022-11-28T09:38:27.909Z,99193.13
2022-11-28T09:40:54.314Z,99182.13
2022-11-28T09:43:20.658Z,99177.84
2022-11-28T09:45:47.291Z,99170.72
2022-11-28T09:48:15.398Z,99169.59
2022-11-28T09:50:41.997Z,99171.41
2022-11-28T09:53:08.352Z,99165.75
2022-11-28T09:55:34.809Z,99158.44
2022-11-28T09:58:01.133Z,99153.44
2022-11-28T10:00:27.569Z,99153.69
2022-11-28T10:02:53.988Z,99151.06
2022-11-28T10:05:20.560Z,99158.16
2022-11-28T10:07:50.979Z,99161.81
2022-11-28T10:10:22.378Z,99145.84
2022-11-28T10:12:48.758Z,99152.19
2022-11-28T10:15:15.433Z,99146.13
2022-11-28T10:17:41.832Z,99144.44
2022-11-28T10:20:08.339Z,99138.78
2022-11-28T10:22:34.886Z,99137.09
2022-11-28T10:25:01.281Z,99135.19
2022-11-28T10:27:27.657Z,99130.25
2022-11-28T10:29:54.034Z,99131.72
2022-11-28T10:32:20.512Z,99128.94
2022-11-28T10:34:47.280Z,99130.97
2022-11-28T10:37:13.787Z,99117.03
2022-11-28T10:39:40.458Z,99128.19
2022-11-28T10:42:07.265Z,99124.66
2022-11-28T10:44:33.849Z,99107.00
2022-11-28T10:47:00.309Z,99115.00
2022-11-28T10:49:27.121Z,99112.47
2022-11-28T10:51:55.064Z,99117.03
2022-11-28T10:54:21.481Z,99107.06
2022-11-28T10:56:48.341Z,99105.00
2022-11-28T10:59:14.854Z,99099.88
2022-11-28T11:01:44.750Z,99101.13
2022-11-28T11:04:18.027Z,99106.81
2022-11-28T11:07:06.807Z,99099.50
2022-11-28T11:09:31.006Z,99094.38
2022-11-28T11:11:57.422Z,99086.47
2022-11-28T11:14:23.792Z,99084.94
2022-11-28T11:16:50.142Z,99086.41
2022-11-28T11:19:16.638Z,99095.97
2022-11-28T11:21:43.327Z,99083.84
2022-11-28T11:24:09.672Z,99087.13
2022-11-28T11:26:36.493Z,99086.16
2022-11-28T11:29:02.872Z,99087.47
2022-11-28T11:31:29.464Z,99095.53
2022-11-28T11:33:55.992Z,99083.44
2022-11-28T11:36:22.628Z,99080.41
2022-11-28T11:38:49.015Z,99085.66
2022-11-28T11:41:15.609Z,99080.34
2022-11-28T11:43:42.091Z,99090.31
2022-11-28T11:46:08.922Z,99082.31
2022-11-28T11:48:35.374Z,99082.94
2022-11-28T11:51:01.898Z,99094.25
2022-11-28T11:53:29.553Z,99095.16
2022-11-28T11:55:55.960Z,99094.28
2022-11-28T11:58:22.711Z,99084.06
2022-11-28T12:00:49.562Z,99089.13
2022-11-28T12:03:16.069Z,99083.50
2022-11-28T12:06:12.297Z,99096.03
2022-11-28T12:08:29.272Z,99085.00
2022-11-28T12:10:55.620Z,99083.44
2022-11-28T12:13:22.048Z,99077.75
2022-11-28T12:15:48.402Z,99081.84
2022-11-28T12:18:15.833Z,99095.41
2022-11-28T12:20:42.271Z,99078.59
2022-11-28T12:23:13.037Z,99077.25
2022-11-28T12:25:42.301Z,99071.91
2022-11-28T12:28:08.672Z,99081.50
2022-11-28T12:30:37.031Z,99078.19
2022-11-28T12:33:04.844Z,99083.09
2022-11-28T12:35:31.273Z,99085.63
2022-11-28T12:38:13.050Z,99088.72
2022-11-28T12:40:39.476Z,99088.19
2022-11-28T12:43:06.290Z,99103.91
2022-11-28T12:45:32.716Z,99089.09
2022-11-28T12:47:59.226Z,99085.84
2022-11-28T12:50:25.627Z,99084.91
2022-11-28T12:52:52.031Z,99084.88
2022-11-28T12:55:18.447Z,99076.88
2022-11-28T12:57:44.830Z,99087.34
2022-11-28T13:00:11.196Z,99082.38
2022-11-28T13:02:39.220Z,99082.63
2022-11-28T13:05:05.643Z,99077.00
2022-11-28T13:07:32.104Z,99083.81
2022-11-28T13:09:58.580Z,99081.28
2022-11-28T13:12:24.972Z,99078.41
2022-11-28T13:14:54.089Z,99091.22
2022-11-28T13:17:20.573Z,99080.53
2022-11-28T13:19:47.383Z,99087.13
2022-11-28T13:22:14.282Z,99083.38
2022-11-28T13:24:40.727Z,99093.81
2022-11-28T13:27:07.308Z,99086.09
2022-11-28T13:29:33.676Z,99098.84
2022-11-28T13:32:02.471Z,99097.50
2022-11-28T13:34:29.158Z,99094.66
2022-11-28T13:39:41.895Z,99094.34
2022-11-28T13:42:36.453Z,99101.19
2022-11-28T13:44:54.881Z,99102.25
2022-11-28T13:47:21.769Z,99104.72
2022-11-28T13:49:48.166Z,99095.63
2022-11-28T13:52:14.719Z,99098.59
2022-11-28T13:54:41.357Z,99099.63
2022-11-28T13:57:08.193Z,99109.66
2022-11-28T13:59:35.236Z,99100.81
2022-11-28T14:02:01.929Z,99109.44
2022-11-28T14:04:28.348Z,99112.50
2022-11-28T14:06:54.912Z,99102.94
2022-11-28T14:09:21.519Z,99108.84
2022-11-28T14:11:47.876Z,99122.69
2022-11-28T14:14:14.318Z,99126.91
2022-11-28T14:16:41.684Z,99137.72
2022-11-28T14:19:11.054Z,99137.94
2022-11-28T14:21:37.663Z,99133.72
2022-11-28T14:24:04.465Z,99123.03
2022-11-28T14:26:31.856Z,99128.16
2022-11-28T14:29:00.354Z,99136.72
2022-11-28T14:31:26.756Z,99125.00
2022-11-28T14:33:53.137Z,99119.53
2022-11-28T14:36:19.543Z,99129.28
2022-11-28T14:38:46.395Z,99120.31
2022-11-28T14:41:12.776Z,99125.22
2022-11-28T14:43:39.189Z,99135.34
2022-11-28T14:46:06.058Z,99128.50
2022-11-28T14:48:32.991Z,99127.81
2022-11-28T14:51:02.250Z,99121.66
2022-11-28T14:53:29.759Z,99132.47
2022-11-28T14:55:56.114Z,99135.22
2022-11-28T14:58:22.741Z,99139.97
2022-11-28T15:00:49.159Z,99141.00
2022-11-28T15:03:15.567Z,99137.31
2022-11-28T15:05:42.122Z,99145.69
2022-11-28T15:08:08.594Z,99149.31
2022-11-28T15:10:35.455Z,99161.47
2022-11-28T15:13:02.098Z,99144.63
2022-11-28T15:15:29.120Z,99154.56
2022-11-28T15:17:58.306Z,99146.03
2022-11-28T15:20:24.876Z,99147.78
2022-11-28T15:22:51.240Z,99163.56
2022-11-28T15:25:17.669Z,99147.50
2022-11-28T15:27:44.304Z,99145.50
2022-11-28T15:30:11.369Z,99147.81
2022-11-28T15:32:38.172Z,99146.78
2022-11-28T15:35:10.815Z,99153.75
2022-11-28T15:37:38.797Z,99156.41
2022-11-28T15:40:05.320Z,99165.00
2022-11-28T15:42:31.743Z,99167.81
2022-11-28T15:44:58.298Z,99156.75
2022-11-28T15:47:24.800Z,99155.03
2022-11-28T15:49:51.378Z,99160.88
2022-11-28T15:52:17.735Z,99169.53
2022-11-28T15:54:44.459Z,99161.78
2022-11-28T15:57:11.152Z,99165.75
2022-11-28T15:59:37.524Z,99166.06
2022-11-28T16:02:04.282Z,99176.34
2022-11-28T16:04:31.235Z,99171.81
2022-11-28T16:06:58.114Z,99173.69
2022-11-28T16:09:24.500Z,99167.25
2022-11-28T16:11:51.135Z,99178.63
2022-11-28T16:14:17.616Z,99174.72
2022-11-28T16:16:44.617Z,99170.75
2022-11-28T16:19:12.094Z,99161.78
2022-11-28T16:21:39.153Z,99163.75
2022-11-28T16:24:05.964Z,99161.84
2022-11-28T16:26:32.643Z,99163.50
2022-11-28T16:28:59.641Z,99162.69
2022-11-28T16:31:26.569Z,99164.81
2022-11-28T16:33:53.540Z,99166.69
2022-11-28T16:36:20.019Z,99168.53
2022-11-28T16:38:46.744Z,99180.94
2022-11-28T16:41:13.544Z,99177.38
2022-11-28T16:43:40.165Z,99181.00
2022-11-28T16:46:09.685Z,99176.78
2022-11-28T16:48:37.091Z,99173.03
2022-11-28T16:51:03.538Z,99176.28
2022-11-28T16:53:30.864Z,99175.47
2022-11-28T16:55:58.270Z,99179.81
2022-11-28T16:58:24.676Z,99175.25
2022-11-28T17:00:51.564Z,99174.75
2022-11-28T17:03:20.776Z,99178.78
2022-11-28T17:05:47.383Z,99183.00
2022-11-28T17:08:14.221Z,99176.56
2022-11-28T17:10:40.845Z,99179.53
2022-11-28T17:13:07.348Z,99185.66
2022-11-28T17:15:34.208Z,99177.78
2022-11-28T17:18:02.486Z,99182.16
2022-11-28T17:20:30.023Z,99184.44
2022-11-28T17:22:56.838Z,99177.28
2022-11-28T17:25:23.866Z,99183.50
2022-11-28T17:27:52.732Z,99189.88
2022-11-28T17:30:19.500Z,99183.81
2022-11-28T17:32:46.373Z,99179.69
2022-11-28T17:35:14.296Z,99174.03
2022-11-28T17:37:41.258Z,99179.44
2022-11-28T17:40:07.963Z,99183.09
2022-11-28T17:42:34.550Z,99174.16
2022-11-28T17:45:00.977Z,99175.41
2022-11-28T17:47:27.813Z,99184.56
2022-11-28T17:49:54.721Z,99175.56
2022-11-28T17:52:21.882Z,99178.19
2022-11-28T17:54:48.878Z,99173.81
2022-11-28T17:57:15.751Z,99181.72
2022-11-28T17:59:42.785Z,99187.97
2022-11-28T18:02:09.758Z,99188.56
2022-11-28T18:04:36.727Z,99194.84
2022-11-28T18:07:03.653Z,99196.00
2022-11-28T18:09:30.426Z,99188.97
2022-11-28T18:11:59.486Z,99191.97
2022-11-28T18:14:27.138Z,99191.41
2022-11-28T18:16:54.069Z,99178.66
2022-11-28T18:19:22.122Z,99185.78
2022-11-28T18:21:49.034Z,99176.72
2022-11-28T18:24:15.968Z,99172.81
2022-11-28T18:26:43.125Z,99179.50
2022-11-28T18:29:10.281Z,99179.25
2022-11-28T18:31:37.194Z,99181.44
2022-11-28T18:34:04.523Z,99189.03
2022-11-28T18:36:31.518Z,99189.22
2022-11-28T18:38:58.321Z,99187.63
2022-11-28T18:41:25.376Z,99179.06
2022-11-28T18:43:53.341Z,99183.81
2022-11-28T18:46:20.219Z,99183.84
2022-11-28T18:48:48.827Z,99182.94
2022-11-28T18:51:15.710Z,99190.94
2022-11-28T18:53:44.531Z,99182.28
2022-11-28T18:56:11.504Z,99181.97
2022-11-28T18:58:44.435Z,99187.47
2022-11-28T19:01:11.413Z,99190.84
2022-11-28T19:03:38.428Z,99196.44
2022-11-28T19:06:05.398Z,99196.97
2022-11-28T19:08:32.463Z,99193.72
2022-11-28T19:10:59.809Z,99206.97
2022-11-28T19:13:32.369Z,99192.22
2022-11-28T19:16:00.383Z,99192.53
2022-11-28T19:18:27.762Z,99197.28
2022-11-28T19:20:55.731Z,99197.38
2022-11-28T19:23:22.901Z,99188.81
2022-11-28T19:25:51.476Z,99191.97
2022-11-28T19:28:18.667Z,99187.00
2022-11-28T19:30:47.479Z,99184.81
2022-11-28T19:33:14.556Z,99191.47
2022-11-28T19:35:41.871Z,99191.38
2022-11-28T19:38:08.984Z,99197.19
2022-11-28T19:40:36.551Z,99190.28
2022-11-28T19:43:03.023Z,99192.38
2022-11-28T19:45:29.902Z,99187.66
2022-11-28T19:47:56.972Z,99197.72
2022-11-28T19:50:24.638Z,99199.31
2022-11-28T19:52:52.269Z,99199.63
2022-11-28T19:55:20.253Z,99197.00
2022-11-28T19:57:47.184Z,99202.28
2022-11-28T20:00:16.392Z,99196.28
2022-11-28T20:02:43.404Z,99195.28
2022-11-28T20:05:10.539Z,99201.50
2022-11-28T20:07:39.174Z,99198.84
2022-11-28T20:10:07.166Z,99194.88
2022-11-28T20:12:33.587Z,99199.53
2022-11-28T20:15:00.490Z,99201.84
2022-11-28T20:17:27.382Z,99206.91
2022-11-28T20:19:54.263Z,99209.53
2022-11-28T20:22:21.511Z,99201.41
2022-11-28T20:24:48.467Z,99197.81
2022-11-28T20:27:15.249Z,99207.53
2022-11-28T20:29:42.004Z,99203.03
2022-11-28T20:32:09.466Z,99214.38
2022-11-28T20:34:37.043Z,99207.63
2022-11-28T20:37:04.544Z,99214.94
2022-11-28T20:39:31.487Z,99208.44
2022-11-28T20:41:59.074Z,99216.72
2022-11-28T20:44:27.523Z,99206.94
2022-11-28T20:46:54.414Z,99210.19
2022-11-28T20:49:21.333Z,99215.31
2022-11-28T20:51:50.702Z,99215.56
2022-11-28T20:54:17.570Z,99226.09
2022-11-28T20:59:35.543Z,99216.22
2022-11-28T21:02:03.225Z,99220.34
2022-11-28T21:04:31.061Z,99226.81
2022-11-28T21:06:57.509Z,99218.41
2022-11-28T21:09:24.489Z,99229.28
2022-11-28T21:11:57.463Z,99222.59
2022-11-28T21:14:25.534Z,99221.75
2022-11-28T21:16:52.160Z,99219.06
2022-11-28T21:19:19.922Z,99222.66
2022-11-28T21:21:46.464Z,99222.50
2022-11-28T21:24:14.031Z,99219.47
2022-11-28T21:26:42.383Z,99218.88
2022-11-28T21:29:10.567Z,99209.59
2022-11-28T21:31:37.176Z,99213.09
2022-11-28T21:34:03.771Z,99213.19
2022-11-28T21:36:30.470Z,99215.19
2022-11-28T21:38:56.848Z,99227.06
2022-11-28T21:41:23.261Z,99225.44
2022-11-28T21:43:49.885Z,99216.19
2022-11-28T21:46:16.328Z,99214.09
2022-11-28T21:48:42.771Z,99218.19
2022-11-28T21:51:09.318Z,99207.41
2022-11-28T21:53:35.690Z,99213.75
2022-11-28T21:56:04.387Z,99216.94
2022-11-28T21:58:32.507Z,99217.09
2022-11-28T22:01:02.725Z,99219.13
2022-11-28T22:03:29.702Z,99216.28
2022-11-28T22:05:56.226Z,99205.16
2022-11-28T22:08:22.873Z,99202.09
2022-11-28T22:10:54.986Z,99198.81
2022-11-28T22:13:21.513Z,99201.13
2022-11-28T22:15:48.214Z,99212.59
2022-11-28T22:18:16.666Z,99205.72
2022-11-28T22:20:45.772Z,99198.06
2022-11-28T22:23:15.390Z,99198.97
2022-11-28T22:25:43.307Z,99208.16
2022-11-28T22:28:09.701Z,99213.56
2022-11-28T22:30:36.358Z,99209.97
2022-11-28T22:33:02.848Z,99206.75
2022-11-28T22:35:29.704Z,99204.53
2022-11-28T22:37:56.084Z,99207.97
2022-11-28T22:40:22.588Z,99199.13
2022-11-28T22:42:48.956Z,99208.44
2022-11-28T22:45:15.469Z,99203.72
2022-11-28T22:47:41.917Z,99202.41
2022-11-28T22:50:08.360Z,99209.22
2022-11-28T22:52:34.705Z,99205.75
2022-11-28T22:55:01.080Z,99209.97
2022-11-28T22:57:27.444Z,99205.53
2022-11-28T22:59:54.029Z,99207.63
2022-11-28T23:02:21.887Z,99205.84
2022-11-28T23:04:48.498Z,99203.50
2022-11-28T23:07:14.941Z,99198.19
2022-11-28T23:09:41.416Z,99199.81
2022-11-28T23:12:08.066Z,99195.63
2022-11-28T23:14:34.478Z,99203.50
2022-11-28T23:17:03.159Z,99202.59
2022-11-28T23:19:29.664Z,99200.91
2022-11-28T23:21:56.140Z,99197.34
2022-11-28T23:24:22.716Z,99191.84
2022-11-28T23:26:50.468Z,99194.78
2022-11-28T23:29:17.029Z,99194.47
2022-11-28T23:31:44.695Z,99195.69
2022-11-28T23:34:11.498Z,99194.50
2022-11-28T23:36:42.174Z,99186.47
2022-11-28T23:39:09.235Z,99204.94
2022-11-28T23:41:35.691Z,99195.00
2022-11-28T23:44:02.098Z,99191.38
2022-11-28T23:46:28.831Z,99197.47
2022-11-28T23:48:55.437Z,99188.44
2022-11-28T23:51:21.783Z,99195.28
2022-11-28T23:53:48.116Z,99194.97
2022-11-28T23:56:14.459Z,99179.22
2022-11-28T23:58:41.310Z,99180.56
